createdAt,value
2023-01-17T00:03:12.151Z,99954.59
2023-01-17T00:08:29.732Z,100011.81
2023-01-17T00:13:27.273Z,100001.78
2023-01-17T00:18:24.127Z,100021.19
2023-01-17T00:23:40.941Z,100026.38
2023-01-17T00:28:39.654Z,100016.91
2023-01-17T00:33:36.722Z,100000.91
2023-01-17T00:38:35.214Z,99984.75
2023-01-17T00:43:50.663Z,100002.34
2023-01-17T00:49:06.091Z,99976.97
2023-01-17T00:54:20.965Z,99924.16
2023-01-17T00:59:36.130Z,99919.06
2023-01-17T01:04:52.064Z,99908.16
2023-01-17T01:10:07.229Z,99893.59
2023-01-17T01:15:22.730Z,99908.25
2023-01-17T01:20:38.451Z,99914.84
2023-01-17T01:25:54.013Z,99899.31
2023-01-17T01:31:08.878Z,99920.19
2023-01-17T01:36:08.704Z,99875.25
2023-01-17T01:41:06.040Z,99901.41
2023-01-17T01:46:03.831Z,99924.91
2023-01-17T01:51:03.652Z,99885.16
2023-01-17T01:56:02.789Z,99883.66
2023-01-17T02:00:59.824Z,99880.13
2023-01-17T02:06:03.964Z,99880.03
2023-01-17T02:11:02.912Z,99800.72
2023-01-17T02:16:07.422Z,99831.88
2023-01-17T02:21:22.601Z,99853.50
2023-01-17T02:26:45.658Z,99882.53
2023-01-17T02:31:49.373Z,99839.97
2023-01-17T02:36:51.870Z,99794.69
2023-01-17T02:41:54.487Z,99819.56
2023-01-17T02:46:54.319Z,99825.78
2023-01-17T02:52:11.817Z,99867.78
2023-01-17T02:57:23.416Z,99880.25
2023-01-17T03:02:28.726Z,99842.44
2023-01-17T03:07:28.006Z,99831.13
2023-01-17T03:12:27.830Z,99819.38
2023-01-17T03:17:28.851Z,99851.03
2023-01-17T03:22:25.659Z,99815.81
2023-01-17T03:27:22.487Z,99816.13
2023-01-17T03:32:19.404Z,99834.16
2023-01-17T03:37:16.905Z,99736.63
2023-01-17T03:42:13.715Z,99791.84
2023-01-17T03:47:11.615Z,99780.72
2023-01-17T03:52:08.509Z,99805.69
2023-01-17T03:57:06.169Z,99715.56
2023-01-17T04:02:03.126Z,99770.44
2023-01-17T04:07:00.116Z,99805.44
2023-01-17T04:11:57.025Z,99807.06
2023-01-17T04:16:55.255Z,99810.59
2023-01-17T04:21:52.324Z,99809.88
2023-01-17T04:26:49.239Z,99811.00
2023-01-17T04:31:47.131Z,99852.31
2023-01-17T04:36:45.640Z,99845.38
2023-01-17T04:41:43.326Z,99781.00
2023-01-17T04:46:40.781Z,99854.44
2023-01-17T04:51:37.693Z,99804.97
2023-01-17T04:56:35.161Z,99805.31
2023-01-17T05:01:32.090Z,99822.69
2023-01-17T05:06:29.560Z,99814.44
2023-01-17T05:11:26.380Z,99821.25
2023-01-17T05:16:23.948Z,99833.25
2023-01-17T05:21:21.340Z,99782.09
2023-01-17T05:26:18.271Z,99846.22
2023-01-17T05:31:15.218Z,99801.72
2023-01-17T05:36:12.711Z,99867.34
2023-01-17T05:41:09.521Z,99896.94
2023-01-17T05:46:06.491Z,99871.34
2023-01-17T05:51:03.412Z,99903.19
2023-01-17T05:56:01.042Z,99849.25
2023-01-17T06:00:57.943Z,99906.19
2023-01-17T06:05:54.886Z,99880.47
2023-01-17T06:10:51.794Z,99888.50
2023-01-17T06:15:49.759Z,99884.59
2023-01-17T06:20:53.711Z,99815.78
2023-01-17T06:25:51.499Z,99879.38
2023-01-17T06:30:49.683Z,99904.03
2023-01-17T06:35:50.745Z,99886.59
2023-01-17T06:40:47.879Z,99814.13
2023-01-17T06:45:44.797Z,99861.94
2023-01-17T06:50:43.415Z,99893.28
2023-01-17T06:55:40.735Z,99903.72
2023-01-17T07:00:40.551Z,99898.56
2023-01-17T07:05:37.942Z,99892.72
2023-01-17T07:10:35.657Z,99833.19
2023-01-17T07:15:32.477Z,99832.78
2023-01-17T07:20:30.034Z,99912.28
2023-01-17T07:25:27.846Z,99932.50
2023-01-17T07:30:26.273Z,99878.06
2023-01-17T07:35:26.064Z,99930.66
2023-01-17T07:40:23.995Z,99926.72
2023-01-17T07:45:21.309Z,99924.94
2023-01-17T07:50:19.064Z,99922.56
2023-01-17T07:55:16.089Z,99902.81
2023-01-17T08:00:13.992Z,99905.47
2023-01-17T08:05:10.845Z,99853.63
2023-01-17T08:10:12.511Z,99909.66
2023-01-17T08:15:10.831Z,99928.06
2023-01-17T08:20:11.121Z,99907.53
2023-01-17T08:25:09.866Z,99901.59
2023-01-17T08:30:12.294Z,99922.84
2023-01-17T08:35:10.718Z,99913.88
2023-01-17T08:40:10.524Z,99864.75
2023-01-17T08:45:09.274Z,99918.63
2023-01-17T08:50:06.953Z,99834.44
2023-01-17T08:55:05.387Z,99891.66
2023-01-17T09:00:03.468Z,99916.91
2023-01-17T09:05:14.783Z,99888.69
2023-01-17T09:10:16.195Z,99889.59
2023-01-17T09:15:27.998Z,99846.16
2023-01-17T09:20:29.514Z,99880.25
2023-01-17T09:25:27.667Z,99846.06
2023-01-17T09:30:25.155Z,99858.38
2023-01-17T09:35:22.523Z,99853.66
2023-01-17T09:40:25.781Z,99879.84
2023-01-17T09:45:30.400Z,99788.66
2023-01-17T09:50:32.021Z,99834.34
2023-01-17T09:55:35.117Z,99837.69
2023-01-17T10:00:46.587Z,99838.50
2023-01-17T10:05:56.821Z,99850.38
2023-01-17T10:11:15.155Z,99829.75
2023-01-17T10:16:49.306Z,99852.09
2023-01-17T10:22:17.975Z,99808.91
2023-01-17T10:27:21.547Z,99835.00
2023-01-17T10:32:25.661Z,99771.47
2023-01-17T10:37:34.202Z,99846.34
2023-01-17T10:42:43.411Z,99773.28
2023-01-17T10:47:45.815Z,99767.56
2023-01-17T10:52:53.104Z,99796.75
2023-01-17T10:57:53.316Z,99835.63
2023-01-17T11:03:28.080Z,99835.16
2023-01-17T11:08:25.597Z,99806.66
2023-01-17T11:13:29.812Z,99780.44
2023-01-17T11:18:30.178Z,99784.13
2023-01-17T11:23:33.440Z,99791.94
2023-01-17T11:28:38.677Z,99792.69
2023-01-17T11:39:21.300Z,99802.03
2023-01-17T11:44:24.189Z,99716.34
2023-01-17T11:49:24.334Z,99760.19
2023-01-17T11:54:27.195Z,99715.88
2023-01-17T11:59:31.125Z,99777.50
2023-01-17T12:04:36.548Z,99795.91
2023-01-17T12:09:42.807Z,99805.53
2023-01-17T12:14:49.831Z,99805.22
2023-01-17T12:20:00.369Z,99782.50
2023-01-17T12:25:24.548Z,99728.66
2023-01-17T12:30:38.034Z,99803.91
2023-01-17T12:35:42.547Z,99768.84
2023-01-17T12:40:46.434Z,99751.16
2023-01-17T12:45:47.264Z,99795.06
2023-01-17T12:50:52.398Z,99700.78
2023-01-17T12:55:54.618Z,99753.69
2023-01-17T13:01:00.293Z,99779.63
2023-01-17T13:06:02.942Z,99756.59
2023-01-17T13:11:07.275Z,99806.63
2023-01-17T13:16:13.003Z,99768.13
2023-01-17T13:21:33.450Z,99784.63
2023-01-17T13:26:52.115Z,99816.75
2023-01-17T13:32:03.439Z,99809.88
2023-01-17T13:37:26.344Z,99816.03
2023-01-17T13:42:29.243Z,99824.69
2023-01-17T13:47:42.105Z,99809.16
2023-01-17T13:52:40.346Z,99819.09
2023-01-17T13:57:43.550Z,99802.16
2023-01-17T14:02:41.580Z,99765.72
2023-01-17T14:07:48.556Z,99797.44
2023-01-17T14:12:49.551Z,99754.38
2023-01-17T14:18:02.834Z,99766.13
2023-01-17T14:23:02.277Z,99786.22
2023-01-17T14:28:23.175Z,99801.72
2023-01-17T14:33:30.085Z,99789.91
2023-01-17T14:38:31.240Z,99818.84
2023-01-17T14:43:32.977Z,99791.31
2023-01-17T14:48:35.296Z,99808.47
2023-01-17T14:53:33.379Z,99819.63
2023-01-17T14:58:32.489Z,99800.03
2023-01-17T15:03:38.269Z,99765.06
2023-01-17T15:08:35.964Z,99805.34
2023-01-17T15:13:44.393Z,99766.59
2023-01-17T15:18:45.806Z,99791.44
2023-01-17T15:23:46.075Z,99817.28
2023-01-17T15:28:45.130Z,99815.19
2023-01-17T15:33:46.480Z,99787.88
2023-01-17T15:39:02.104Z,99790.84
2023-01-17T15:44:01.435Z,99803.28
2023-01-17T15:49:24.362Z,99797.31
2023-01-17T15:54:35.140Z,99794.19
2023-01-17T15:59:43.521Z,99809.25
2023-01-17T16:04:41.702Z,99763.13
2023-01-17T16:09:43.851Z,99803.78
2023-01-17T16:15:06.242Z,99796.03
2023-01-17T16:20:09.850Z,99787.53
2023-01-17T16:25:14.701Z,99794.94
2023-01-17T16:30:26.108Z,99770.63
2023-01-17T16:35:29.437Z,99822.97
2023-01-17T16:40:28.832Z,99797.06
2023-01-17T16:45:29.429Z,99829.97
2023-01-17T16:50:29.465Z,99762.56
2023-01-17T16:55:27.980Z,99770.88
2023-01-17T17:00:28.862Z,99811.53
2023-01-17T17:05:29.011Z,99851.00
2023-01-17T17:10:27.237Z,99820.53
2023-01-17T17:15:24.975Z,99852.97
2023-01-17T17:20:25.088Z,99807.13
2023-01-17T17:25:22.210Z,99842.66
2023-01-17T17:30:51.130Z,99792.59
2023-01-17T17:35:57.339Z,99806.88
2023-01-17T17:40:55.103Z,99809.88
2023-01-17T17:45:53.129Z,99768.72
2023-01-17T17:50:59.486Z,99726.16
2023-01-17T17:56:02.938Z,99782.56
2023-01-17T18:01:02.733Z,99774.81
2023-01-17T18:06:06.363Z,99790.41
2023-01-17T18:11:06.917Z,99688.56
2023-01-17T18:16:05.747Z,99780.31
2023-01-17T18:21:09.135Z,99739.47
2023-01-17T18:26:16.163Z,99751.59
2023-01-17T18:31:15.898Z,99744.16
2023-01-17T18:36:14.745Z,99671.25
2023-01-17T18:41:13.270Z,99662.78
2023-01-17T18:46:14.505Z,99731.66
2023-01-17T18:51:16.483Z,99717.88
2023-01-17T18:56:15.152Z,99689.78
2023-01-17T19:01:13.903Z,99669.53
2023-01-17T19:06:24.017Z,99701.81
2023-01-17T19:11:22.665Z,99680.97
2023-01-17T19:16:24.169Z,99670.34
2023-01-17T19:21:23.870Z,99642.84
2023-01-17T19:26:23.296Z,99684.81
2023-01-17T19:31:22.935Z,99620.09
2023-01-17T19:36:23.374Z,99697.28
2023-01-17T19:41:23.517Z,99715.78
2023-01-17T19:46:23.022Z,99686.69
2023-01-17T19:51:20.470Z,99676.16
2023-01-17T19:56:25.916Z,99691.06
2023-01-17T20:01:27.112Z,99635.66
2023-01-17T20:06:26.278Z,99673.91
2023-01-17T20:11:28.083Z,99673.69
2023-01-17T20:16:26.521Z,99692.53
2023-01-17T20:21:25.192Z,99671.88
2023-01-17T20:26:25.028Z,99572.72
2023-01-17T20:31:23.971Z,99560.38
2023-01-17T20:36:22.930Z,99675.13
2023-01-17T20:41:21.700Z,99680.03
2023-01-17T20:46:20.695Z,99668.97
2023-01-17T20:51:18.486Z,99641.19
2023-01-17T20:56:15.378Z,99691.16
2023-01-17T21:01:18.793Z,99678.41
2023-01-17T21:06:16.553Z,99673.84
2023-01-17T21:11:15.345Z,99626.88
2023-01-17T21:16:13.719Z,99545.84
2023-01-17T21:21:13.806Z,99592.94
2023-01-17T21:26:14.184Z,99618.25
2023-01-17T21:31:19.768Z,99658.19
2023-01-17T21:36:17.210Z,99582.28
2023-01-17T21:41:14.767Z,99625.22
2023-01-17T21:46:11.834Z,99617.44
2023-01-17T21:51:09.146Z,99640.09
2023-01-17T21:56:25.824Z,99553.88
2023-01-17T22:01:26.631Z,99611.91
2023-01-17T22:06:26.506Z,99607.91
2023-01-17T22:11:25.405Z,99586.22
2023-01-17T22:16:25.094Z,99600.66
2023-01-17T22:21:23.828Z,99557.78
2023-01-17T22:26:22.321Z,99551.97
2023-01-17T22:31:20.746Z,99585.88
2023-01-17T22:36:19.570Z,99553.56
2023-01-17T22:41:19.577Z,99599.53
2023-01-17T22:46:18.556Z,99552.94
2023-01-17T22:51:17.691Z,99580.44
2023-01-17T22:56:17.331Z,99558.88
2023-01-17T23:01:16.533Z,99535.25
2023-01-17T23:06:15.203Z,99534.50
2023-01-17T23:11:41.799Z,99544.34
2023-01-17T23:16:58.117Z,99547.69
2023-01-17T23:22:15.408Z,99528.34
2023-01-17T23:27:33.263Z,99536.88
2023-01-17T23:32:30.213Z,99526.03
2023-01-17T23:37:49.749Z,99514.47
2023-01-17T23:43:05.327Z,99531.69
2023-01-17T23:48:04.388Z,99559.47
2023-01-17T23:53:06.240Z,99535.19
2023-01-17T23:58:03.957Z,99561.38
